This is the latest recevied weather packets stored in our database for station/object WD9U. If no packets are shown the sender has not sent any weather packets the latest 10 day(s).
| Time | Temp. | Humidity | Pressure | Rain* | Wind** | Luminosity | Snow |
|---|---|---|---|---|---|---|---|
| 1777821551 | 16.67° C | 43% | 1005.2 hPa | 0 mm | - | 640 W/m² | - |
| 1777821191 | 16.67° C | 45% | 1005.1 hPa | 0 mm | - | 626 W/m² | - |
| 1777820831 | 16.67° C | 46% | 1005.2 hPa | 0 mm | - | 614 W/m² | - |
| 1777820713 | 16.67° C | 45% | 1005.1 hPa | 0 mm | - | 612 W/m² | - |
| 1777820471 | 16.67° C | 46% | 1005 hPa | 0 mm | - | 602 W/m² | - |
| 1777820111 | 16.67° C | 49% | 1005.1 hPa | 0 mm | - | 588 W/m² | - |
| 1777819751 | 16.11° C | 46% | 1005.2 hPa | 0 mm | - | 571 W/m² | - |
| 1777819512 | 16.11° C | 49% | 1005.2 hPa | 0 mm | - | 562 W/m² | - |
| 1777819390 | 16.11° C | 48% | 1005.2 hPa | 0 mm | - | 556 W/m² | - |
| 1777819029 | 16.11° C | 47% | 1005.3 hPa | 0 mm | - | 541 W/m² | - |
| 1777818668 | 15.56° C | 51% | 1005.4 hPa | 0 mm | - | 526 W/m² | - |
| 1777818308 | 15.56° C | 51% | 1005.4 hPa | 0 mm | - | 513 W/m² | - |
| 1777817948 | 15° C | 53% | 1005.4 hPa | 0 mm | - | 499 W/m² | - |
| 1777817588 | 15° C | 53% | 1005.6 hPa | 0 mm | - | 482 W/m² | - |
| 1777817228 | 14.44° C | 53% | 1005.6 hPa | 0 mm | - | 466 W/m² | - |
| 1777817120 | 14.44° C | 54% | 1005.6 hPa | 0 mm | - | 462 W/m² | - |
| 1777816868 | 14.44° C | 53% | 1005.7 hPa | 0 mm | - | 451 W/m² | - |
| 1777816508 | 14.44° C | 55% | 1005.6 hPa | 0 mm | - | 436 W/m² | - |
| 1777816148 | 13.89° C | 56% | 1005.6 hPa | 0 mm | - | 418 W/m² | - |
| 1777815919 | 13.89° C | 58% | 1005.7 hPa | 0 mm | - | 407 W/m² | - |
| 1777815797 | 13.89° C | 57% | 1005.8 hPa | 0 mm | - | 402 W/m² | - |
| 1777815436 | 13.33° C | 62% | 1007.5 hPa | 0 mm | - | 385 W/m² | - |
| 1777815076 | 12.78° C | 66% | 1005.8 hPa | 0 mm | - | 371 W/m² | - |
| 1777814716 | 11.67° C | 70% | 1005.8 hPa | 0 mm | - | 355 W/m² | - |
| 1777814356 | 11.11° C | 75% | 1005.9 hPa | 0 mm | - | 337 W/m² | - |
* Rain latest hour (hover to see other rain measurements)
** Current wind speed in m/s (hover to see current wind gust speed)